Time;durP1;ratioP1;P1;durP2;ratioP2;P2;SDS_P1;SDS_P2;PMS_P1;PMS_P2;Temp;Humidity;BMP_temperature;BMP_pressure;BME280_temperature;BME280_humidity;BME280_pressure;Samples;Min_cycle;Max_cycle;Signal;HPM_P1;HPM_P2
2023/09/16 00:03:53;;;;;;;21.83;17.08;;;;;;;-147.65;100.00;57646.63;10463847;28;20045;-78
2023/09/16 00:08:54;;;;;;;25.35;17.83;;;;;;;-147.65;100.00;57646.63;10456812;28;20171;-78
2023/09/16 00:13:54;;;;;;;21.17;16.38;;;;;;;-147.65;100.00;57646.63;10501585;28;20396;-78
2023/09/16 00:18:56;;;;;;;22.25;15.57;;;;;;;-147.65;100.00;57646.63;10465608;28;20508;-78
2023/09/16 00:23:57;;;;;;;21.60;17.37;;;;;;;-147.65;100.00;57646.63;10472537;28;20562;-78
2023/09/16 00:28:57;;;;;;;23.60;17.92;;;;;;;-147.65;100.00;57646.63;10460752;28;20033;-79
2023/09/16 00:33:58;;;;;;;27.77;21.27;;;;;;;-147.65;100.00;57646.63;10461334;28;20115;-78
2023/09/16 00:38:58;;;;;;;22.13;18.63;;;;;;;-147.65;100.00;57646.63;10460605;28;20123;-79
2023/09/16 00:43:59;;;;;;;29.67;20.10;;;;;;;-147.65;100.00;57646.63;10467897;28;20040;-78
2023/09/16 00:48:59;;;;;;;23.27;19.23;;;;;;;-147.65;100.00;57646.63;10464019;28;20388;-78
2023/09/16 00:54:00;;;;;;;27.27;20.13;;;;;;;-147.65;100.00;57646.63;10477764;28;20051;-79
2023/09/16 00:59:00;;;;;;;25.75;19.05;;;;;;;-147.65;100.00;57646.63;10474859;28;20395;-78
2023/09/16 01:04:01;;;;;;;27.13;20.60;;;;;;;-147.65;100.00;57646.63;10413158;28;20494;-78
2023/09/16 01:09:02;;;;;;;43.88;19.70;;;;;;;-147.65;100.00;57646.63;10428061;28;20051;-78
2023/09/16 01:14:03;;;;;;;27.17;19.35;;;;;;;-147.65;100.00;57646.63;10459837;28;20071;-78
2023/09/16 01:19:24;;;;;;;26.63;18.85;;;;;;;-147.65;100.00;57646.63;10473030;28;20155;-78
2023/09/16 01:24:25;;;;;;;22.20;16.88;;;;;;;-147.65;100.00;57646.63;10455078;28;20091;-78
2023/09/16 01:29:25;;;;;;;26.52;20.67;;;;;;;-147.65;100.00;57646.63;10463029;28;20174;-78
2023/09/16 01:34:55;;;;;;;25.60;19.83;;;;;;;-147.65;100.00;57646.63;10464543;28;20042;-78
2023/09/16 01:40:10;;;;;;;24.08;18.13;;;;;;;-147.65;100.00;57646.63;10418858;28;20509;-78
2023/09/16 01:45:10;;;;;;;22.35;15.63;;;;;;;-147.65;100.00;57646.63;10413737;28;20409;-78
2023/09/16 01:50:11;;;;;;;19.98;16.23;;;;;;;-147.65;100.00;57646.63;10434535;28;20068;-78
2023/09/16 01:55:12;;;;;;;24.90;15.00;;;;;;;-147.65;100.00;57646.63;10440055;28;20553;-78
2023/09/16 02:00:13;;;;;;;31.90;14.60;;;;;;;-147.65;100.00;57646.63;10434045;28;20116;-78
2023/09/16 02:05:13;;;;;;;18.95;16.20;;;;;;;-147.65;100.00;57646.63;10439201;28;20045;-78
2023/09/16 02:10:14;;;;;;;22.42;14.73;;;;;;;-147.65;100.00;57646.63;10469024;28;20144;-78
2023/09/16 02:15:15;;;;;;;21.00;16.15;;;;;;;-147.65;100.00;57646.63;10472708;28;20116;-78
2023/09/16 02:20:16;;;;;;;17.08;13.23;;;;;;;-147.65;100.00;57646.63;10428724;28;20041;-78
2023/09/16 02:25:16;;;;;;;22.52;14.48;;;;;;;-147.65;100.00;57646.63;10435965;28;20060;-78
2023/09/16 02:30:17;;;;;;;21.20;14.50;;;;;;;-147.65;100.00;57646.63;10438198;28;20124;-79
2023/09/16 02:35:17;;;;;;;23.15;15.93;;;;;;;-147.65;100.00;57646.63;10445087;28;20106;-78
2023/09/16 02:40:18;;;;;;;18.23;14.73;;;;;;;-147.65;100.00;57646.63;10441116;28;20116;-78
2023/09/16 02:45:19;;;;;;;21.23;16.52;;;;;;;-147.65;100.00;57646.63;10462930;28;20056;-78
2023/09/16 02:50:19;;;;;;;25.13;17.65;;;;;;;-147.65;100.00;57646.63;10445722;28;20747;-78
2023/09/16 02:55:22;;;;;;;27.08;18.67;;;;;;;-147.65;100.00;57646.63;10442215;28;20042;-78
2023/09/16 03:00:22;;;;;;;20.92;15.60;;;;;;;-147.65;100.00;57646.63;10431640;28;20041;-78
2023/09/16 03:05:24;;;;;;;26.63;19.50;;;;;;;-147.65;100.00;57646.63;10446272;28;20075;-78
2023/09/16 03:10:24;;;;;;;22.25;17.38;;;;;;;-147.65;100.00;57646.63;10441921;28;20086;-78
2023/09/16 03:15:25;;;;;;;29.33;19.52;;;;;;;-147.65;100.00;57646.63;10447153;28;20448;-78
2023/09/16 03:20:25;;;;;;;31.02;22.05;;;;;;;-147.65;100.00;57646.63;10446019;28;20041;-78
2023/09/16 03:25:26;;;;;;;26.25;19.60;;;;;;;-147.65;100.00;57646.63;10432920;28;20039;-78
2023/09/16 03:30:26;;;;;;;22.42;17.08;;;;;;;-147.65;100.00;57646.63;10444729;28;20175;-78
2023/09/16 03:35:28;;;;;;;18.10;16.13;;;;;;;-147.65;100.00;57646.63;10446859;28;20049;-78
2023/09/16 03:40:28;;;;;;;26.10;20.97;;;;;;;-147.65;100.00;57646.63;10440707;28;20040;-78
2023/09/16 03:45:29;;;;;;;31.55;22.80;;;;;;;-147.65;100.00;57646.63;10478632;28;20132;-78
2023/09/16 03:50:29;;;;;;;23.70;19.33;;;;;;;-147.65;100.00;57646.63;10441467;28;20073;-78
2023/09/16 03:55:30;;;;;;;22.58;18.35;;;;;;;-147.65;100.00;57646.63;10463668;28;20055;-78
2023/09/16 04:00:30;;;;;;;23.63;19.88;;;;;;;-147.65;100.00;57646.63;10440737;28;20043;-78
2023/09/16 04:05:31;;;;;;;29.25;20.83;;;;;;;-147.65;100.00;57646.63;10473306;28;20087;-79
2023/09/16 04:10:31;;;;;;;36.10;25.05;;;;;;;-147.65;100.00;57646.63;10432764;28;20052;-78
2023/09/16 04:15:32;;;;;;;30.35;24.27;;;;;;;-147.65;100.00;57646.63;10444886;28;20029;-79
2023/09/16 04:20:32;;;;;;;32.13;21.75;;;;;;;-147.65;100.00;57646.63;10470528;28;20039;-78
2023/09/16 04:25:33;;;;;;;28.83;21.02;;;;;;;-147.65;100.00;57646.63;10438938;28;20401;-78
2023/09/16 04:30:47;;;;;;;27.75;19.83;;;;;;;-147.65;100.00;57646.63;10440799;28;20043;-78
2023/09/16 04:35:49;;;;;;;38.42;28.80;;;;;;;-147.65;100.00;57646.63;10441098;28;20054;-77
2023/09/16 04:40:50;;;;;;;41.20;29.50;;;;;;;-147.65;100.00;57646.63;10457726;28;20121;-78
2023/09/16 04:45:50;;;;;;;31.42;22.88;;;;;;;-147.65;100.00;57646.63;10442872;28;20060;-78
2023/09/16 04:50:51;;;;;;;31.95;23.70;;;;;;;-147.65;100.00;57646.63;10446123;28;20052;-78
2023/09/16 04:56:09;;;;;;;28.98;20.00;;;;;;;-147.65;100.00;57646.63;10466890;28;20068;-78
2023/09/16 05:01:12;;;;;;;35.03;23.25;;;;;;;-147.65;100.00;57646.63;10441285;28;20129;-78
2023/09/16 05:06:12;;;;;;;30.90;21.95;;;;;;;-147.65;100.00;57646.63;10456722;28;20432;-78
2023/09/16 05:11:13;;;;;;;28.48;20.58;;;;;;;-147.65;100.00;57646.63;10436944;28;20041;-77
2023/09/16 05:16:14;;;;;;;30.27;24.85;;;;;;;-147.65;100.00;57646.63;10429327;28;20406;-79
2023/09/16 05:21:14;;;;;;;31.55;25.98;;;;;;;-147.65;100.00;57646.63;10433188;28;20041;-78
2023/09/16 05:26:15;;;;;;;30.33;25.63;;;;;;;-147.65;100.00;57646.63;10419211;28;20425;-78
2023/09/16 05:31:16;;;;;;;50.80;30.67;;;;;;;-147.65;100.00;57646.63;10480611;28;20049;-78
2023/09/16 05:36:16;;;;;;;44.47;29.92;;;;;;;-147.65;100.00;57646.63;10431453;28;20037;-79
2023/09/16 05:41:17;;;;;;;50.65;34.78;;;;;;;-147.65;100.00;57646.63;10459832;28;20032;-79
2023/09/16 05:46:18;;;;;;;17.85;11.40;;;;;;;-147.65;100.00;57646.63;10495379;28;20059;-80
2023/09/16 05:51:19;;;;;;;19.90;12.97;;;;;;;-147.65;100.00;57646.63;10462637;28;20043;-80
2023/09/16 05:56:19;;;;;;;22.10;12.93;;;;;;;-147.65;100.00;57646.63;10449815;28;20041;-82
2023/09/16 06:01:20;;;;;;;22.85;15.35;;;;;;;-147.65;100.00;57646.63;10463878;28;20048;-79
2023/09/16 06:06:20;;;;;;;28.40;14.38;;;;;;;-147.65;100.00;57646.63;10452029;28;20044;-79
2023/09/16 06:11:26;;;;;;;39.40;28.15;;;;;;;-147.65;100.00;57646.63;10468070;28;20044;-78
2023/09/16 06:16:26;;;;;;;1999.90;999.90;;;;;;;-147.65;100.00;57646.63;10466278;28;20124;-81
2023/09/16 06:21:27;;;;;;;21.08;18.88;;;;;;;-147.65;100.00;57646.63;10450318;28;20258;-78
2023/09/16 06:26:27;;;;;;;136.88;44.92;;;;;;;-147.65;100.00;57646.63;10489577;28;20037;-79
2023/09/16 06:31:28;;;;;;;88.60;80.45;;;;;;;-147.65;100.00;57646.63;10457620;28;20031;-79
2023/09/16 06:36:28;;;;;;;10.97;6.63;;;;;;;-147.65;100.00;57646.63;10472300;28;20041;-79
2023/09/16 06:41:30;;;;;;;4.10;3.30;;;;;;;-147.65;100.00;57646.63;10458041;28;20047;-79
2023/09/16 06:46:30;;;;;;;5.72;4.18;;;;;;;-147.65;100.00;57646.63;10464176;28;20039;-79
2023/09/16 06:51:31;;;;;;;8.57;6.17;;;;;;;-147.65;100.00;57646.63;10463017;28;20369;-79
2023/09/16 06:56:31;;;;;;;11.47;5.63;;;;;;;-147.65;100.00;57646.63;10451631;28;20061;-79
2023/09/16 07:01:32;;;;;;;7.60;5.67;;;;;;;-147.65;100.00;57646.63;10470318;28;20051;-79
2023/09/16 07:06:32;;;;;;;9.57;5.47;;;;;;;-147.65;100.00;57646.63;10470947;28;20074;-81
2023/09/16 07:11:33;;;;;;;10.67;8.03;;;;;;;-147.65;100.00;57646.63;10461124;28;20053;-79
2023/09/16 07:16:36;;;;;;;11.93;5.53;;;;;;;-147.65;100.00;57646.63;10472309;28;20122;-78
2023/09/16 07:21:37;;;;;;;7.68;5.82;;;;;;;-147.65;100.00;57646.63;10450875;28;20040;-79
2023/09/16 07:26:37;;;;;;;6.97;4.97;;;;;;;-147.65;100.00;57646.63;10469521;28;20064;-80
2023/09/16 07:31:38;;;;;;;9.77;6.23;;;;;;;-147.65;100.00;57646.63;10440681;28;20032;-80
2023/09/16 07:36:38;;;;;;;8.97;6.57;;;;;;;-147.65;100.00;57646.63;10428391;28;20060;-79
2023/09/16 07:41:40;;;;;;;10.20;6.37;;;;;;;-147.65;100.00;57646.63;10391381;28;20651;-80
2023/09/16 07:46:40;;;;;;;;;;;;;;;-147.65;100.00;57646.63;10412035;28;20172;-78
2023/09/16 07:51:41;;;;;;;7.53;5.17;;;;;;;-147.65;100.00;57646.63;10402499;28;19921;-79
2023/09/16 07:56:41;;;;;;;11.63;6.70;;;;;;;-147.65;100.00;57646.63;10417767;28;20604;-79
2023/09/16 08:01:42;;;;;;;8.20;5.23;;;;;;;-147.65;100.00;57646.63;10440538;28;20494;-79
2023/09/16 08:06:42;;;;;;;9.67;6.77;;;;;;;-147.65;100.00;57646.63;10487067;28;20758;-79
2023/09/16 08:11:43;;;;;;;7.67;5.40;;;;;;;-147.65;100.00;57646.63;10445626;28;20040;-79
2023/09/16 08:16:44;;;;;;;13.03;6.07;;;;;;;-147.65;100.00;57646.63;10487280;28;20068;-78
2023/09/16 08:21:45;;;;;;;10.23;4.32;;;;;;;-147.65;100.00;57646.63;10444473;28;20099;-78
2023/09/16 08:26:45;;;;;;;12.63;5.57;;;;;;;-147.65;100.00;57646.63;10498336;28;20036;-78
2023/09/16 08:31:46;;;;;;;9.23;5.90;;;;;;;-147.65;100.00;57646.63;10456946;28;20099;-78
2023/09/16 08:36:46;;;;;;;8.63;5.00;;;;;;;-147.65;100.00;57646.63;10460776;28;20040;-79
2023/09/16 08:41:59;;;;;;;10.47;4.93;;;;;;;-147.65;100.00;57646.63;10457854;28;20088;-78
2023/09/16 08:47:05;;;;;;;10.10;5.38;;;;;;;-147.65;100.00;57646.63;10476687;28;20077;-78
2023/09/16 08:52:05;;;;;;;10.23;5.18;;;;;;;-147.65;100.00;57646.63;10451806;28;20112;-79
2023/09/16 08:57:06;;;;;;;8.60;6.27;;;;;;;-147.65;100.00;57646.63;10461390;28;20047;-78
2023/09/16 09:02:08;;;;;;;11.40;5.97;;;;;;;-147.65;100.00;57646.63;10459783;28;20637;-79
2023/09/16 09:07:08;;;;;;;13.00;5.65;;;;;;;-147.65;100.00;57646.63;10441005;28;20040;-78
2023/09/16 09:12:09;;;;;;;7.97;5.40;;;;;;;-147.65;100.00;57646.63;10456618;28;20040;-78
2023/09/16 09:17:09;;;;;;;9.10;5.27;;;;;;;-147.65;100.00;57646.63;10461913;28;20055;-77
2023/09/16 09:22:10;;;;;;;9.23;5.07;;;;;;;-147.65;100.00;57646.63;10430933;28;20045;-78
2023/09/16 09:27:10;;;;;;;8.80;4.70;;;;;;;-147.65;100.00;57646.63;10469204;28;20053;-79
2023/09/16 09:32:11;;;;;;;7.93;5.05;;;;;;;-147.65;100.00;57646.63;10485378;28;20136;-81
2023/09/16 09:37:16;;;;;;;8.00;5.50;;;;;;;-147.65;100.00;57646.63;10459741;28;20037;-83
2023/09/16 09:42:20;;;;;;;8.88;5.53;;;;;;;-147.65;100.00;57646.63;10435169;28;20285;-80
2023/09/16 09:47:21;;;;;;;11.10;4.88;;;;;;;-147.65;100.00;57646.63;10453454;28;20489;-83
2023/09/16 09:52:22;;;;;;;5.35;3.55;;;;;;;-147.65;100.00;57646.63;10457257;28;20045;-79
2023/09/16 09:57:23;;;;;;;7.07;4.40;;;;;;;-147.65;100.00;57646.63;10455764;28;20041;-78
2023/09/16 10:02:26;;;;;;;5.65;2.45;;;;;;;-147.65;100.00;57646.63;10467351;28;20401;-81
2023/09/16 10:07:30;;;;;;;4.30;2.72;;;;;;;-147.65;100.00;57646.63;10461253;28;20128;-79
2023/09/16 10:12:30;;;;;;;8.40;4.47;;;;;;;-147.65;100.00;57646.63;10447364;28;20080;-80
2023/09/16 10:17:30;;;;;;;;;;;;;;;-147.65;100.00;57646.63;10446492;28;20556;-79
2023/09/16 10:22:31;;;;;;;7.23;5.67;;;;;;;-147.65;100.00;57646.63;10424909;28;19927;-79
2023/09/16 10:27:33;;;;;;;;;;;;;;;-147.65;100.00;57646.63;10443916;28;20124;-81
2023/09/16 10:32:33;;;;;;;8.18;5.70;;;;;;;-147.65;100.00;57646.63;10441672;28;20391;-80
2023/09/16 10:37:33;;;;;;;;;;;;;;;-147.65;100.00;57646.63;10443248;28;20071;-80
2023/09/16 10:42:34;;;;;;;8.67;6.50;;;;;;;-147.65;100.00;57646.63;10438898;28;19927;-79
2023/09/16 10:47:34;;;;;;;;;;;;;;;-147.65;100.00;57646.63;10460358;28;20128;-77
2023/09/16 10:52:45;;;;;;;6.83;4.93;;;;;;;-147.65;100.00;57646.63;10392504;28;20425;-78
2023/09/16 10:57:54;;;;;;;10.67;5.90;;;;;;;-147.65;100.00;57646.63;10410051;28;20044;-76
2023/09/16 11:02:59;;;;;;;8.30;5.03;;;;;;;-147.65;100.00;57646.63;10478199;28;20048;-76
2023/09/16 11:07:59;;;;;;;7.38;4.88;;;;;;;-147.65;100.00;57646.63;10487932;28;20043;-75
2023/09/16 11:13:00;;;;;;;;;;;;;;;-147.65;100.00;57646.63;10450342;28;20055;-75
2023/09/16 11:18:04;;;;;;;8.90;5.68;;;;;;;-147.65;100.00;57646.63;10431988;28;19921;-75
2023/09/16 11:23:05;;;;;;;9.45;4.97;;;;;;;-147.65;100.00;57646.63;10462084;28;20118;-75
2023/09/16 11:28:14;;;;;;;7.72;5.82;;;;;;;-147.65;100.00;57646.63;10486487;28;20036;-75
2023/09/16 11:33:33;;;;;;;5.97;4.97;;;;;;;-147.65;100.00;57646.63;10459604;28;20048;-75
2023/09/16 11:38:34;;;;;;;19.65;8.02;;;;;;;-147.65;100.00;57646.63;10454127;28;20451;-76
2023/09/16 11:43:38;;;;;;;9.32;5.10;;;;;;;-147.65;100.00;57646.63;10494985;28;20033;-79
2023/09/16 11:48:53;;;;;;;8.25;5.28;;;;;;;-147.65;100.00;57646.63;10460768;28;20029;-78
2023/09/16 11:53:54;;;;;;;9.50;4.78;;;;;;;-147.65;100.00;57646.63;10469420;28;20071;-77
2023/09/16 11:58:55;;;;;;;7.15;5.85;;;;;;;-147.65;100.00;57646.63;10480459;28;20082;-78
2023/09/16 12:03:58;;;;;;;5.97;4.68;;;;;;;-147.65;100.00;57646.63;10471058;28;20093;-77
2023/09/16 12:08:59;;;;;;;9.85;4.82;;;;;;;-147.65;100.00;57646.63;10481781;28;20094;-77
2023/09/16 12:14:00;;;;;;;9.55;6.18;;;;;;;-147.65;100.00;57646.63;10493592;28;20037;-77
2023/09/16 12:19:00;;;;;;;;;;;;;;;-147.65;100.00;57646.63;10454252;28;20045;-79
2023/09/16 12:24:01;;;;;;;7.93;5.17;;;;;;;-147.65;100.00;57646.63;10459332;28;19931;-77
2023/09/16 12:29:03;;;;;;;11.20;5.27;;;;;;;-147.65;100.00;57646.63;10464379;28;20128;-78
2023/09/16 12:34:03;;;;;;;6.68;5.07;;;;;;;-147.65;100.00;57646.63;10462998;28;20449;-77
2023/09/16 12:39:04;;;;;;;6.78;5.50;;;;;;;-147.65;100.00;57646.63;10497012;28;20037;-79
2023/09/16 12:44:04;;;;;;;9.18;5.10;;;;;;;-147.65;100.00;57646.63;10499888;28;20036;-78
2023/09/16 12:49:05;;;;;;;6.88;5.25;;;;;;;-147.65;100.00;57646.63;10451783;28;20051;-79
2023/09/16 12:54:06;;;;;;;7.33;4.63;;;;;;;-147.65;100.00;57646.63;10468261;28;20201;-80
2023/09/16 12:59:07;;;;;;;7.35;4.78;;;;;;;-147.65;100.00;57646.63;10479597;28;20484;-77
2023/09/16 13:04:07;;;;;;;8.30;4.75;;;;;;;-147.65;100.00;57646.63;10473393;28;20182;-77
2023/09/16 13:09:11;;;;;;;7.67;5.10;;;;;;;-147.65;100.00;57646.63;10461474;28;20077;-77
2023/09/16 13:14:12;;;;;;;9.63;4.97;;;;;;;-147.65;100.00;57646.63;10499958;28;20290;-78
2023/09/16 13:19:15;;;;;;;7.53;5.60;;;;;;;-147.65;100.00;57646.63;10494054;28;20129;-78
2023/09/16 13:24:15;;;;;;;6.75;4.75;;;;;;;-147.65;100.00;57646.63;10490465;28;20099;-78
2023/09/16 13:29:16;;;;;;;8.25;5.13;;;;;;;-147.65;100.00;57646.63;10459695;28;20489;-78
2023/09/16 13:34:17;;;;;;;7.53;5.03;;;;;;;-147.65;100.00;57646.63;10446873;28;20510;-78
2023/09/16 13:39:17;;;;;;;;;;;;;;;-147.65;100.00;57646.63;10461873;28;20561;-78
2023/09/16 13:44:18;;;;;;;6.40;5.13;;;;;;;-147.65;100.00;57646.63;10465719;28;20003;-79
2023/09/16 13:49:18;;;;;;;8.17;5.57;;;;;;;-147.65;100.00;57646.63;10460994;28;20114;-78
2023/09/16 13:54:19;;;;;;;9.67;5.20;;;;;;;-147.65;100.00;57646.63;10453840;28;20047;-78
2023/09/16 13:59:19;;;;;;;13.33;6.50;;;;;;;-147.65;100.00;57646.63;10464002;28;20424;-78
2023/09/16 14:04:21;;;;;;;10.13;6.50;;;;;;;-147.65;100.00;57646.63;10499335;28;20040;-78
2023/09/16 14:09:21;;;;;;;6.80;4.80;;;;;;;-147.65;100.00;57646.63;10440818;28;20032;-78
2023/09/16 14:14:22;;;;;;;7.40;4.83;;;;;;;-147.65;100.00;57646.63;10466439;28;20028;-77
2023/09/16 14:19:22;;;;;;;10.13;5.60;;;;;;;-147.65;100.00;57646.63;10459347;28;20439;-77
2023/09/16 14:24:24;;;;;;;10.20;5.47;;;;;;;-147.65;100.00;57646.63;10447140;28;20037;-77
2023/09/16 14:29:24;;;;;;;7.07;4.50;;;;;;;-147.65;100.00;57646.63;10464341;28;20125;-77
2023/09/16 14:34:25;;;;;;;7.63;5.90;;;;;;;-147.65;100.00;57646.63;10472001;28;20037;-77
2023/09/16 14:39:25;;;;;;;10.03;7.10;;;;;;;-147.65;100.00;57646.63;10466863;28;20403;-77
2023/09/16 14:44:26;;;;;;;8.40;6.00;;;;;;;-147.65;100.00;57646.63;10472876;28;20040;-78
2023/09/16 14:49:27;;;;;;;7.80;5.10;;;;;;;-147.65;100.00;57646.63;10498415;28;20033;-78
2023/09/16 14:54:28;;;;;;;8.80;5.28;;;;;;;-147.65;100.00;57646.63;10496777;28;20122;-78
2023/09/16 14:59:28;;;;;;;7.70;5.60;;;;;;;-147.65;100.00;57646.63;10459784;28;20041;-78
2023/09/16 15:04:29;;;;;;;7.47;5.67;;;;;;;-147.65;100.00;57646.63;10461988;28;20045;-77
2023/09/16 15:09:30;;;;;;;8.60;6.57;;;;;;;-147.65;100.00;57646.63;10471285;28;20059;-78
2023/09/16 15:14:30;;;;;;;9.57;6.63;;;;;;;-147.65;100.00;57646.63;10466854;28;20489;-77
2023/09/16 15:19:31;;;;;;;10.13;5.37;;;;;;;-147.65;100.00;57646.63;10462431;28;20271;-77
2023/09/16 15:24:32;;;;;;;8.60;6.73;;;;;;;-147.65;100.00;57646.63;10472094;28;20048;-76
2023/09/16 15:29:32;;;;;;;8.80;7.53;;;;;;;-147.65;100.00;57646.63;10438681;28;20890;-77
2023/09/16 15:34:33;;;;;;;10.77;6.47;;;;;;;-147.65;100.00;57646.63;10456903;28;20065;-77
2023/09/16 15:39:34;;;;;;;8.63;7.25;;;;;;;-147.65;100.00;57646.63;10470550;28;20071;-77
2023/09/16 15:44:34;;;;;;;10.80;8.83;;;;;;;-147.65;100.00;57646.63;10466932;28;20123;-77
2023/09/16 15:49:35;;;;;;;12.83;8.83;;;;;;;-147.65;100.00;57646.63;10447353;28;20036;-76
2023/09/16 15:54:36;;;;;;;20.47;10.53;;;;;;;-147.65;100.00;57646.63;10454944;28;20120;-77
2023/09/16 15:59:37;;;;;;;10.13;7.13;;;;;;;-147.65;100.00;57646.63;10461691;28;20064;-77
2023/09/16 16:04:38;;;;;;;;;;;;;;;-147.65;100.00;57646.63;10463148;28;20490;-77
2023/09/16 16:09:38;;;;;;;8.67;6.77;;;;;;;-147.65;100.00;57646.63;10462565;28;20011;-78
2023/09/16 16:14:39;;;;;;;11.83;9.27;;;;;;;-147.65;100.00;57646.63;10486919;28;20367;-76
2023/09/16 16:19:39;;;;;;;11.07;7.17;;;;;;;-147.65;100.00;57646.63;10466417;28;20047;-77
2023/09/16 16:24:40;;;;;;;12.40;7.53;;;;;;;-147.65;100.00;57646.63;10466444;28;20129;-80
2023/09/16 16:29:41;;;;;;;10.27;7.53;;;;;;;-147.65;100.00;57646.63;10434722;28;22314;-76
2023/09/16 16:34:42;;;;;;;11.05;7.35;;;;;;;-147.65;100.00;57646.63;10448085;28;20041;-75
2023/09/16 16:39:44;;;;;;;90.97;86.90;;;;;;;-147.65;100.00;57646.63;10455435;28;20036;-77
2023/09/16 16:44:46;;;;;;;1999.90;999.90;;;;;;;-147.65;100.00;57646.63;10462149;28;20055;-75
2023/09/16 16:49:48;;;;;;;1999.90;999.90;;;;;;;-147.65;100.00;57646.63;10439183;28;20087;-76
2023/09/16 16:54:49;;;;;;;13.07;8.30;;;;;;;-147.65;100.00;57646.63;10410763;28;20032;-76
2023/09/16 16:59:49;;;;;;;17.60;10.37;;;;;;;-147.65;100.00;57646.63;10435557;28;20477;-76
2023/09/16 17:04:50;;;;;;;13.90;10.90;;;;;;;-147.65;100.00;57646.63;10440098;28;20142;-76
2023/09/16 17:09:51;;;;;;;18.70;12.93;;;;;;;-147.65;100.00;57646.63;10433325;28;20107;-76
2023/09/16 17:14:52;;;;;;;14.10;11.65;;;;;;;-147.65;100.00;57646.63;10434172;28;20473;-77
2023/09/16 17:19:53;;;;;;;33.17;9.40;;;;;;;-147.65;100.00;57646.63;10419522;28;20051;-77
2023/09/16 17:24:54;;;;;;;13.07;9.40;;;;;;;-147.65;100.00;57646.63;10453549;28;20040;-78
2023/09/16 17:29:54;;;;;;;12.43;8.73;;;;;;;-147.65;100.00;57646.63;10476844;28;20493;-78
2023/09/16 17:34:55;;;;;;;11.50;9.07;;;;;;;-147.65;100.00;57646.63;10446135;28;20133;-77
2023/09/16 17:39:55;;;;;;;14.20;10.73;;;;;;;-147.65;100.00;57646.63;10473792;28;20028;-76
2023/09/16 17:44:56;;;;;;;15.47;10.97;;;;;;;-147.65;100.00;57646.63;10446374;28;20075;-77
2023/09/16 17:49:56;;;;;;;12.93;9.57;;;;;;;-147.65;100.00;57646.63;10465670;28;20379;-76
2023/09/16 17:54:57;;;;;;;18.23;9.77;;;;;;;-147.65;100.00;57646.63;10462425;28;20032;-77
2023/09/16 17:59:57;;;;;;;13.03;10.07;;;;;;;-147.65;100.00;57646.63;10497944;28;20063;-76
2023/09/16 18:04:58;;;;;;;15.07;10.23;;;;;;;-147.65;100.00;57646.63;10461821;28;20499;-76
2023/09/16 18:09:59;;;;;;;15.27;10.40;;;;;;;-147.65;100.00;57646.63;10459821;28;20064;-77
2023/09/16 18:14:59;;;;;;;17.60;10.73;;;;;;;-147.65;100.00;57646.63;10498547;28;20511;-77
2023/09/16 18:20:00;;;;;;;13.07;10.10;;;;;;;-147.65;100.00;57646.63;10472048;28;20044;-77
2023/09/16 18:25:01;;;;;;;21.60;10.50;;;;;;;-147.65;100.00;57646.63;10467373;28;20041;-77
2023/09/16 18:30:02;;;;;;;13.77;10.63;;;;;;;-147.65;100.00;57646.63;10465573;28;20041;-77
2023/09/16 18:35:03;;;;;;;13.43;11.02;;;;;;;-147.65;100.00;57646.63;10476009;28;20033;-77
2023/09/16 18:40:07;;;;;;;17.58;11.93;;;;;;;-147.65;100.00;57646.63;10451190;28;20044;-77
2023/09/16 18:45:08;;;;;;;18.85;13.05;;;;;;;-147.65;100.00;57646.63;10461802;28;20370;-77
2023/09/16 18:50:09;;;;;;;15.97;11.53;;;;;;;-147.65;100.00;57646.63;10460614;28;20045;-77
2023/09/16 18:55:10;;;;;;;15.03;11.00;;;;;;;-147.65;100.00;57646.63;10455659;28;20049;-76
2023/09/16 19:00:11;;;;;;;16.60;11.03;;;;;;;-147.65;100.00;57646.63;10452255;28;20119;-77
2023/09/16 19:05:11;;;;;;;27.25;13.57;;;;;;;-147.65;100.00;57646.63;10459686;28;20049;-76
2023/09/16 19:10:12;;;;;;;17.33;11.83;;;;;;;-147.65;100.00;57646.63;10483829;28;20059;-77
2023/09/16 19:15:12;;;;;;;26.58;16.60;;;;;;;-147.65;100.00;57646.63;10458509;28;20121;-76
2023/09/16 19:20:13;;;;;;;22.67;15.10;;;;;;;-147.65;100.00;57646.63;10456237;28;20055;-76
2023/09/16 19:25:13;;;;;;;25.00;18.70;;;;;;;-147.65;100.00;57646.63;10465414;28;20131;-76
2023/09/16 19:30:14;;;;;;;35.10;17.70;;;;;;;-147.65;100.00;57646.63;10460380;28;20411;-76
2023/09/16 19:35:14;;;;;;;18.97;14.80;;;;;;;-147.65;100.00;57646.63;10497688;28;20048;-77
2023/09/16 19:40:15;;;;;;;20.77;16.45;;;;;;;-147.65;100.00;57646.63;10493123;28;20114;-76
2023/09/16 19:45:16;;;;;;;27.37;18.90;;;;;;;-147.65;100.00;57646.63;10463331;28;20055;-76
2023/09/16 19:50:16;;;;;;;25.83;19.75;;;;;;;-147.65;100.00;57646.63;10484598;28;20063;-76
2023/09/16 19:55:17;;;;;;;34.25;23.70;;;;;;;-147.65;100.00;57646.63;10451006;28;20041;-76
2023/09/16 20:00:17;;;;;;;28.55;23.38;;;;;;;-147.65;100.00;57646.63;10494083;28;20064;-75
2023/09/16 20:05:21;;;;;;;29.40;21.48;;;;;;;-147.65;100.00;57646.63;10494725;28;20132;-77
2023/09/16 20:10:22;;;;;;;27.73;21.30;;;;;;;-147.65;100.00;57646.63;10459051;28;20454;-77
2023/09/16 20:15:22;;;;;;;28.15;22.50;;;;;;;-147.65;100.00;57646.63;10442494;28;20033;-77
2023/09/16 20:20:23;;;;;;;39.67;26.52;;;;;;;-147.65;100.00;57646.63;10467222;28;20480;-77
2023/09/16 20:25:27;;;;;;;25.88;19.45;;;;;;;-147.65;100.00;57646.63;10455375;28;20043;-77
2023/09/16 20:30:27;;;;;;;30.33;22.73;;;;;;;-147.65;100.00;57646.63;10467296;28;20041;-76
2023/09/16 20:35:28;;;;;;;30.90;24.75;;;;;;;-147.65;100.00;57646.63;10451092;28;20037;-78
2023/09/16 20:40:28;;;;;;;29.05;22.05;;;;;;;-147.65;100.00;57646.63;10456740;28;20397;-76
2023/09/16 20:45:29;;;;;;;26.13;20.20;;;;;;;-147.65;100.00;57646.63;10398194;28;20044;-76
2023/09/16 20:50:34;;;;;;;37.33;26.00;;;;;;;-147.65;100.00;57646.63;10440089;28;20048;-77
2023/09/16 20:55:34;;;;;;;31.15;23.20;;;;;;;-147.65;100.00;57646.63;10400296;28;20182;-77
2023/09/16 21:00:35;;;;;;;31.70;23.55;;;;;;;-147.65;100.00;57646.63;10468208;28;20493;-77
2023/09/16 21:05:36;;;;;;;29.23;20.60;;;;;;;-147.65;100.00;57646.63;10420657;28;20057;-76
2023/09/16 21:10:36;;;;;;;39.00;23.90;;;;;;;-147.65;100.00;57646.63;10419167;28;20385;-76
2023/09/16 21:15:37;;;;;;;28.60;21.23;;;;;;;-147.65;100.00;57646.63;10419300;28;20052;-76
2023/09/16 21:20:37;;;;;;;29.52;21.38;;;;;;;-147.65;100.00;57646.63;10388383;28;20033;-77
2023/09/16 21:25:39;;;;;;;31.60;24.27;;;;;;;-147.65;100.00;57646.63;10448152;28;20047;-76
2023/09/16 21:30:40;;;;;;;27.10;20.23;;;;;;;-147.65;100.00;57646.63;10422069;28;20048;-77
2023/09/16 21:35:40;;;;;;;33.23;24.93;;;;;;;-147.65;100.00;57646.63;10465066;28;20040;-76
2023/09/16 21:40:44;;;;;;;26.48;20.20;;;;;;;-147.65;100.00;57646.63;10426170;28;20045;-76
2023/09/16 21:45:44;;;;;;;31.67;23.88;;;;;;;-147.65;100.00;57646.63;10422227;28;20041;-76
2023/09/16 21:50:45;;;;;;;28.30;23.58;;;;;;;-147.65;100.00;57646.63;10431365;28;20037;-76
2023/09/16 21:55:45;;;;;;;41.47;31.02;;;;;;;-147.65;100.00;57646.63;10423278;28;20120;-76
2023/09/16 22:00:46;;;;;;;34.75;26.92;;;;;;;-147.65;100.00;57646.63;10401456;28;20044;-78
2023/09/16 22:05:47;;;;;;;38.80;27.23;;;;;;;-147.65;100.00;57646.63;10426213;28;20037;-76
2023/09/16 22:10:47;;;;;;;39.55;28.30;;;;;;;-147.65;100.00;57646.63;10418500;28;20033;-77
2023/09/16 22:15:48;;;;;;;40.50;30.85;;;;;;;-147.65;100.00;57646.63;10422416;28;20119;-77
2023/09/16 22:20:48;;;;;;;33.60;26.45;;;;;;;-147.65;100.00;57646.63;10424106;28;20041;-76